Airfield :
LOGIN :

Register | Disclaimer

   EN    FR    IT 

 










Legend :    VFR   Marginal VFR   IFR   Intensive IFR   Very Intensive IFR
Visi :
Ceiling :
>= 8 km
>= 3000ft
5 to 8 km
1000 to 3000 ft
1500m to 5 km
500 to 1000 ft
800 to 1500m
200 to 500 ft
< 800m
< 200 ft
Symbols :   Thunderstorms  Fog  Heavy snow  Heavy precipitations  Wind > 20 kt
SIGMETs :     Misc.  Thunderstorms  Icing  Turbulence  Mountain Waves  Volcanic Ashes






- Airport Elevation : 194 ft
- IATA code : LME


LFRM - Le Mans

CURRENT METAR :
  • 090600Z AUTO VRB01KT CAVOK M01/M02 Q1009

EXPIRED METARs :
  • 090530Z AUTO VRB02KT CAVOK M01/M01 Q1009
  • 090500Z AUTO VRB03KT CAVOK M01/M01 Q1009
  • 090430Z AUTO VRB02KT 9000 NSC M01/M01 Q1009
  • 090400Z AUTO VRB02KT CAVOK M00/M01 Q1009
  • 090330Z AUTO VRB02KT CAVOK M00/M01 Q1009

TAF TAF LFRM
Valid from the 09 at 06:00 until the 10 at 06:00 UTC


090500Z 0906/1006 VRB03KT CAVOK
BECMG 0914/0916 18012KT -RA
TEMPO 0915/0924 4500 BKN012
PROB40
TEMPO 0919/0923 3000 RADZ BKN005
BECMG 0923/1002 28015G25KT SCT020
TEMPO 1002/1004 28020G30KT
TEMPO 1002/1006 4000 SHRA BKN018TCU



MET'MAP, your aeronautical weather chart ! - Copyright ORBIFLY December 2007 - Disclaimer

ORBIFLY MET'MAP TEAM :

Programming & Development : Alexandra Zaïnal
Concept & original design : Baudouin d'Aumeries
Assistance for programming : Marc-Olivier Méhu
Technical & hardware support : Manuel Goepfert

Contact : metmap@orbifly.com




SOURCES & CREDITS :

   NOAA